YSSYYBNA

Guest
Details From YSSY - Sydney Kingsford Smith Airport
To YBNA - Ballina/Byron Gateway
Flight Number -
Tags decoded
Created
Modified
Stats Distance 336 nm / 622 km
Max Altitude 0 ft / 0 m
Waypoints 4
Social Downloads 1
Likes 0
Share VATSIM

Download

Looking for another format? Having issues loading an existing format? Contact us
Advertisement - Login to hide

Notes

Requested: YSSY ENTRA Y245 BANDA YBNA

Route

YSSY ENTRA Y245 BANDA YBNA

ID Type Via Altitude (ft/m) Position (lat/lon) Dist (leg/tot) Name
O YSSY APT - 0 / 0 -33.94610 / 151.17700 - / 0 nm Sydney Kingsford Smith Airport
ENTRA FIX - 0 / 0 -33.58310 / 151.69700 33 / 33 nm
BANDA FIX Y245 (AWY-HI) 0 / 0 -30.79980 / 152.57300 172 / 206 nm
O YBNA APT - 0 / 0 -28.83330 / 153.56100 128 / 335 nm Ballina/Byron Gateway

Altitude Profile

Advertisement - Login to hide

Weather


0- 5 10 15 20 25 30 35+ Temperature / °C

Clouds and Precipitation
Forecast for 2019-04-25 00:00 UTC. Updated 3 hours ago

Ground ~20,000 ft ~40,000 ft Winds

YSSY

Details ICAO YSSY (SYD)
Name Sydney Kingsford Smith Airport
Region Australia
Timezone Australia/Sydney (UTC+10.0)
Stats Elevation 20 ft / 6 m (AMSL)
Location -33.946100° 151.177000°
Runways 3
Magnetic Variation 12.612° E

METAR

YSSY 250000Z 28008KT CAVOK 24/14 Q1020 FM0230 14010KT CAVOK

Decode

TAF

TAF YSSY 242303Z 2500/2606 28008KT CAVOK FM250300 14010KT 9999 FEW015 FM250900 04008KT 9999 FEW015 FM251400 28008KT CAVOK FM260200 24014G28KT CAVOK

Decode

Departure Runways

ID Width Length Bearing (true/mag) Surface Threshold Overrun Markings Lighting
07 148 ft / 45 m 8,315 ft / 2,534 m 74.09° / 61.48° ASPHALT 0 ft / 0 m 535 ft / 163 m PREC-APP CENTERLINE EDGE THRESHOLD MALSF
16L 148 ft / 45 m 8,018 ft / 2,444 m 167.79° / 155.18° ASPHALT 0 ft / 0 m 295 ft / 90 m PREC-APP CENTERLINE EDGE THRESHOLD MALSF
16R 148 ft / 45 m 13,030 ft / 3,971 m 167.92° / 155.31° ASPHALT 295 ft / 90 m 669 ft / 204 m PREC-APP CENTERLINE EDGE THRESHOLD MALSF
25 148 ft / 45 m 8,315 ft / 2,534 m 254.08° / 241.47° ASPHALT 331 ft / 101 m 174 ft / 53 m PREC-APP CENTERLINE EDGE THRESHOLD MALSF
34L 148 ft / 45 m 13,030 ft / 3,971 m 347.91° / 335.30° ASPHALT 0 ft / 0 m 991 ft / 302 m PREC-APP CENTERLINE EDGE THRESHOLD MALSF
34R 148 ft / 45 m 8,018 ft / 2,444 m 347.79° / 335.18° ASPHALT 125 ft / 38 m 292 ft / 89 m PREC-APP CENTERLINE EDGE THRESHOLD MALSF

YBNA

Details ICAO YBNA (BNK)
Name Ballina/Byron Gateway
Region Australia
Timezone Australia/Sydney (UTC+10.0)
Stats Elevation 6 ft / 2 m (AMSL)
Location -28.833300° 153.561000°
Runways 1
Magnetic Variation 11.567° E

METAR

YBNA 250000Z AUTO 33002KT 9999 // OVC050 22/22 Q1021

Decode

TAF

Not found

Destination Runways

ID Width Length Bearing (true/mag) Surface Threshold Overrun Markings Lighting
06 98 ft / 30 m 6,241 ft / 1,902 m 73.50° / 61.94° ASPHALT 0 ft / 0 m 0 ft / 0 m APP EDGE THRESHOLD
24 98 ft / 30 m 6,241 ft / 1,902 m 253.50° / 241.93° ASPHALT 0 ft / 0 m 0 ft / 0 m APP EDGE THRESHOLD

Popular Alternatives